createdAt,value
2018-09-22T00:00:26.322Z,100365.27
2018-09-22T00:01:32.609Z,100360.13
2018-09-22T00:02:38.848Z,100365.59
2018-09-22T00:03:45.101Z,100366.28
2018-09-22T00:04:51.344Z,100368.30
2018-09-22T00:05:57.601Z,100372.05
2018-09-22T00:07:03.503Z,100371.95
2018-09-22T00:08:09.731Z,100376.30
2018-09-22T00:09:16.925Z,100374.78
2018-09-22T00:10:24.500Z,100367.47
2018-09-22T00:11:31.268Z,100377.24
2018-09-22T00:12:37.615Z,100367.64
2018-09-22T00:13:43.857Z,100372.21
2018-09-22T00:14:50.259Z,100369.97
2018-09-22T00:15:56.501Z,100371.72
2018-09-22T00:17:02.567Z,100373.74
2018-09-22T00:18:08.821Z,100378.88
2018-09-22T00:19:14.769Z,100375.52
2018-09-22T00:20:21.917Z,100381.39
2018-09-22T00:21:28.152Z,100383.66
2018-09-22T00:22:34.452Z,100390.15
2018-09-22T00:23:40.677Z,100388.01
2018-09-22T00:24:46.687Z,100394.16
2018-09-22T00:25:52.904Z,100395.08
2018-09-22T00:26:59.185Z,100393.59
2018-09-22T00:28:05.492Z,100396.45
2018-09-22T00:29:11.704Z,100392.87
2018-09-22T00:30:17.977Z,100396.48
2018-09-22T00:31:24.247Z,100388.27
2018-09-22T00:32:30.154Z,100391.32
2018-09-22T00:33:36.433Z,100390.06
2018-09-22T00:34:42.657Z,100388.22
2018-09-22T00:35:48.921Z,100388.48
2018-09-22T00:36:54.848Z,100389.73
2018-09-22T00:38:01.118Z,100396.01
2018-09-22T00:39:07.051Z,100393.50
2018-09-22T00:40:13.272Z,100391.16
2018-09-22T00:41:19.559Z,100391.84
2018-09-22T00:42:25.807Z,100396.86
2018-09-22T00:43:32.029Z,100398.86
2018-09-22T00:44:38.282Z,100396.91
2018-09-22T00:45:44.541Z,100403.59
2018-09-22T00:46:50.765Z,100406.27
2018-09-22T00:47:57.052Z,100402.17
2018-09-22T00:49:03.312Z,100405.44
2018-09-22T00:50:09.597Z,100401.27
2018-09-22T00:51:15.836Z,100400.42
2018-09-22T00:52:22.130Z,100401.77
2018-09-22T00:53:28.388Z,100397.03
2018-09-22T00:54:34.633Z,100406.67
2018-09-22T00:55:40.876Z,100403.48
2018-09-22T00:56:47.096Z,100406.98
2018-09-22T00:57:53.369Z,100408.81
2018-09-22T00:58:59.600Z,100409.81
2018-09-22T01:00:06.261Z,100408.12
2018-09-22T01:01:13.432Z,100416.52
2018-09-22T01:02:19.688Z,100415.91
2018-09-22T01:03:25.940Z,100422.97
2018-09-22T01:04:31.952Z,100421.52
2018-09-22T01:05:39.140Z,100420.77
2018-09-22T01:06:45.375Z,100426.55
2018-09-22T01:07:51.649Z,100429.45
2018-09-22T01:08:57.896Z,100429.06
2018-09-22T01:10:03.810Z,100427.17
2018-09-22T01:11:10.058Z,100430.60
2018-09-22T01:12:16.324Z,100430.23
2018-09-22T01:13:22.575Z,100428.30
2018-09-22T01:14:28.803Z,100422.80
2018-09-22T01:15:35.128Z,100424.77
2018-09-22T01:16:41.494Z,100428.66
2018-09-22T01:17:47.513Z,100428.64
2018-09-22T01:18:53.472Z,100438.23
2018-09-22T01:19:59.710Z,100435.81
2018-09-22T01:21:05.665Z,100439.67
2018-09-22T01:22:11.887Z,100435.66
2018-09-22T01:23:18.146Z,100438.66
2018-09-22T01:24:24.416Z,100437.40
2018-09-22T01:25:31.701Z,100440.55
2018-09-22T01:26:39.056Z,100440.44
2018-09-22T01:27:46.513Z,100436.03
2018-09-22T01:28:54.211Z,100437.22
2018-09-22T01:30:02.276Z,100440.70
2018-09-22T01:31:09.917Z,100446.00
2018-09-22T01:32:16.985Z,100443.91
2018-09-22T01:33:23.887Z,100443.64
2018-09-22T01:34:30.529Z,100450.77
2018-09-22T01:35:37.128Z,100449.45
2018-09-22T01:36:44.530Z,100456.06
2018-09-22T01:37:52.026Z,100452.12
2018-09-22T01:38:59.414Z,100448.39
2018-09-22T01:40:05.724Z,100459.67
2018-09-22T01:41:11.924Z,100460.41
2018-09-22T01:42:18.176Z,100462.42
2018-09-22T01:43:24.454Z,100458.12
2018-09-22T01:44:30.697Z,100460.07
2018-09-22T01:45:36.697Z,100459.53
2018-09-22T01:46:42.919Z,100459.97
2018-09-22T01:47:48.990Z,100457.31
2018-09-22T01:48:56.236Z,100455.00
2018-09-22T01:50:02.789Z,100453.25
2018-09-22T01:51:09.322Z,100458.88
2018-09-22T01:52:15.609Z,100460.25
2018-09-22T01:53:21.892Z,100463.13
2018-09-22T01:54:28.145Z,100473.53
2018-09-22T01:55:34.087Z,100460.31
2018-09-22T01:56:40.348Z,100465.45
2018-09-22T01:57:46.611Z,100466.28
2018-09-22T01:58:52.833Z,100466.73
2018-09-22T01:59:59.116Z,100472.94
2018-09-22T02:01:05.449Z,100466.22
2018-09-22T02:02:11.713Z,100470.93
2018-09-22T02:03:18.017Z,100475.79
2018-09-22T02:04:23.945Z,100474.23
2018-09-22T02:05:30.275Z,100479.80
2018-09-22T02:06:36.621Z,100477.60
2018-09-22T02:07:45.573Z,100478.91
2018-09-22T02:08:51.869Z,100480.94
2018-09-22T02:09:58.128Z,100484.94
2018-09-22T02:11:04.357Z,100484.45
2018-09-22T02:12:10.598Z,100485.55
2018-09-22T02:13:16.912Z,100491.11
2018-09-22T02:14:23.154Z,100489.19
2018-09-22T02:15:29.379Z,100492.50
2018-09-22T02:16:35.652Z,100488.45
2018-09-22T02:17:41.888Z,100490.20
2018-09-22T02:18:48.189Z,100498.03
2018-09-22T02:19:54.461Z,100495.86
2018-09-22T02:21:00.701Z,100500.54
2018-09-22T02:22:06.958Z,100499.28
2018-09-22T02:23:13.206Z,100499.22
2018-09-22T02:24:23.308Z,100501.43
2018-09-22T02:25:29.547Z,100503.80
2018-09-22T02:26:35.791Z,100509.03
2018-09-22T02:27:41.118Z,100508.57
2018-09-22T02:28:47.403Z,100511.16
2018-09-22T02:29:53.618Z,100522.71
2018-09-22T02:30:59.606Z,100511.47
2018-09-22T02:32:05.860Z,100517.34
2018-09-22T02:33:11.859Z,100512.89
2018-09-22T02:34:17.933Z,100513.23
2018-09-22T02:35:24.213Z,100524.66
2018-09-22T02:36:30.474Z,100517.25
2018-09-22T02:37:36.770Z,100517.52
2018-09-22T02:38:43.026Z,100513.00
2018-09-22T02:39:49.292Z,100507.34
2018-09-22T02:40:55.526Z,100507.44
2018-09-22T02:42:01.428Z,100511.77
2018-09-22T02:43:07.061Z,100504.56
2018-09-22T02:44:13.029Z,100502.64
2018-09-22T02:45:19.309Z,100501.15
2018-09-22T02:46:25.542Z,100501.86
2018-09-22T02:47:31.811Z,100500.35
2018-09-22T02:48:38.089Z,100504.97
2018-09-22T02:49:44.328Z,100507.25
2018-09-22T02:50:50.593Z,100505.32
2018-09-22T02:51:56.820Z,100507.05
2018-09-22T02:53:03.090Z,100514.19
2018-09-22T02:54:09.341Z,100510.69
2018-09-22T02:55:15.568Z,100519.73
2018-09-22T02:56:21.810Z,100519.00
2018-09-22T02:57:28.949Z,100516.27
2018-09-22T02:58:35.216Z,100511.84
2018-09-22T02:59:41.514Z,100522.11
2018-09-22T03:00:47.813Z,100513.83
2018-09-22T03:01:54.208Z,100522.33
2018-09-22T03:03:00.544Z,100529.02
2018-09-22T03:04:06.828Z,100527.87
2018-09-22T03:05:13.065Z,100522.70
2018-09-22T03:06:19.342Z,100522.67
2018-09-22T03:07:25.562Z,100519.00
2018-09-22T03:08:31.824Z,100513.80
2018-09-22T03:09:38.083Z,100517.77
2018-09-22T03:10:44.339Z,100518.05
2018-09-22T03:11:50.580Z,100516.58
2018-09-22T03:12:56.835Z,100521.52
2018-09-22T03:14:03.091Z,100516.11
2018-09-22T03:15:08.392Z,100512.09
2018-09-22T03:16:14.655Z,100515.44
2018-09-22T03:17:20.885Z,100515.66
2018-09-22T03:18:27.170Z,100515.64
2018-09-22T03:19:33.082Z,100519.77
2018-09-22T03:20:44.406Z,100523.08
2018-09-22T03:21:50.652Z,100523.27
2018-09-22T03:22:56.912Z,100526.48
2018-09-22T03:24:03.172Z,100518.33
2018-09-22T03:25:09.132Z,100512.06
2018-09-22T03:26:15.561Z,100516.45
2018-09-22T03:27:21.429Z,100518.09
2018-09-22T03:28:27.664Z,100522.14
2018-09-22T03:29:33.930Z,100523.66
2018-09-22T03:30:40.214Z,100518.60
2018-09-22T03:31:46.467Z,100531.05
2018-09-22T03:32:52.736Z,100524.70
2018-09-22T03:33:58.991Z,100525.23
2018-09-22T03:35:04.551Z,100535.48
2018-09-22T03:36:10.796Z,100532.12
2018-09-22T03:37:17.037Z,100537.20
2018-09-22T03:38:23.265Z,100541.03
2018-09-22T03:39:29.527Z,100545.64
2018-09-22T03:40:35.787Z,100540.10
2018-09-22T03:41:42.102Z,100546.05
2018-09-22T03:42:48.376Z,100544.83
2018-09-22T03:43:54.629Z,100547.99
2018-09-22T03:45:00.856Z,100558.26
2018-09-22T03:46:07.096Z,100550.43
2018-09-22T03:47:13.334Z,100555.66
2018-09-22T03:48:19.606Z,100555.70
2018-09-22T03:49:25.856Z,100557.72
2018-09-22T03:50:32.108Z,100557.80
2018-09-22T03:51:38.436Z,100560.51
2018-09-22T03:52:44.668Z,100561.47
2018-09-22T03:53:50.956Z,100552.77
2018-09-22T03:54:57.247Z,100548.55
2018-09-22T03:56:03.173Z,100549.94
2018-09-22T03:57:09.442Z,100551.59
2018-09-22T03:58:15.722Z,100547.05
2018-09-22T03:59:21.988Z,100551.48
2018-09-22T04:00:28.223Z,100559.23
2018-09-22T04:01:34.509Z,100557.92
2018-09-22T04:02:40.802Z,100565.81
2018-09-22T04:03:47.055Z,100561.95
2018-09-22T04:04:53.385Z,100561.12
2018-09-22T04:05:59.671Z,100557.77
2018-09-22T04:07:05.929Z,100554.15
2018-09-22T04:08:12.177Z,100551.95
2018-09-22T04:09:18.542Z,100550.06
2018-09-22T04:10:25.733Z,100551.23
2018-09-22T04:11:31.963Z,100548.95
2018-09-22T04:12:38.229Z,100554.75
2018-09-22T04:13:44.476Z,100561.90
2018-09-22T04:14:50.733Z,100565.75
2018-09-22T04:15:56.977Z,100568.41
2018-09-22T04:17:03.248Z,100567.78
2018-09-22T04:18:09.488Z,100571.25
2018-09-22T04:19:15.749Z,100568.73
2018-09-22T04:20:21.992Z,100576.10
2018-09-22T04:21:28.240Z,100581.73
2018-09-22T04:22:34.519Z,100582.10
2018-09-22T04:23:40.740Z,100585.13
2018-09-22T04:24:47.061Z,100591.62
2018-09-22T04:25:53.280Z,100594.16
2018-09-22T04:26:59.548Z,100597.91
2018-09-22T04:28:05.791Z,100602.56
2018-09-22T04:29:12.018Z,100605.45
2018-09-22T04:30:18.289Z,100601.14
2018-09-22T04:31:24.799Z,100610.66
2018-09-22T04:32:31.086Z,100610.01
2018-09-22T04:33:37.369Z,100607.67
2018-09-22T04:34:43.637Z,100606.22
2018-09-22T04:35:49.903Z,100607.63
2018-09-22T04:36:56.137Z,100602.56
2018-09-22T04:38:02.385Z,100609.52
2018-09-22T04:39:08.780Z,100605.28
2018-09-22T04:40:15.103Z,100607.48
2018-09-22T04:41:21.355Z,100607.20
2018-09-22T04:42:27.585Z,100611.42
2018-09-22T04:43:33.596Z,100609.11
2018-09-22T04:44:39.853Z,100607.19
2018-09-22T04:45:46.104Z,100608.42
2018-09-22T04:46:52.361Z,100607.48
2018-09-22T04:47:58.582Z,100602.73
2018-09-22T04:49:04.493Z,100605.31
2018-09-22T04:50:10.804Z,100604.71
2018-09-22T04:51:17.140Z,100607.63
2018-09-22T04:52:23.115Z,100607.06
2018-09-22T04:53:29.387Z,100609.83
2018-09-22T04:54:35.766Z,100612.31
2018-09-22T04:55:42.579Z,100620.20
2018-09-22T04:56:49.036Z,100616.16
2018-09-22T04:57:55.282Z,100616.45
2018-09-22T04:59:01.522Z,100620.17
2018-09-22T05:00:07.860Z,100620.05
2018-09-22T05:01:14.819Z,100628.56
2018-09-22T05:02:21.483Z,100622.29
2018-09-22T05:03:28.336Z,100632.03
2018-09-22T05:04:36.332Z,100633.41
2018-09-22T05:05:42.617Z,100631.86
2018-09-22T05:06:48.842Z,100639.92
2018-09-22T05:07:55.065Z,100640.09
2018-09-22T05:09:00.958Z,100637.44
2018-09-22T05:10:07.254Z,100634.32
2018-09-22T05:11:13.793Z,100631.48
2018-09-22T05:12:21.605Z,100639.67
2018-09-22T05:13:28.003Z,100638.22
2018-09-22T05:14:34.258Z,100644.34
2018-09-22T05:15:40.593Z,100643.63
2018-09-22T05:16:47.661Z,100645.15
2018-09-22T05:17:53.936Z,100639.03
2018-09-22T05:19:01.076Z,100637.34
2018-09-22T05:20:07.221Z,100647.64
2018-09-22T05:21:13.919Z,100646.16
2018-09-22T05:22:20.247Z,100646.04
2018-09-22T05:23:26.615Z,100644.70
2018-09-22T05:24:33.150Z,100647.59
2018-09-22T05:25:39.529Z,100645.17
2018-09-22T05:26:47.330Z,100647.27
2018-09-22T05:27:53.563Z,100649.44
2018-09-22T05:28:59.802Z,100647.67
2018-09-22T05:30:05.559Z,100651.44
2018-09-22T05:31:11.937Z,100655.48
2018-09-22T05:32:18.613Z,100652.12
2018-09-22T05:33:27.183Z,100651.08
2018-09-22T05:34:33.889Z,100654.15
2018-09-22T05:35:40.161Z,100653.67
2018-09-22T05:36:46.476Z,100653.61
2018-09-22T05:37:52.840Z,100654.94
2018-09-22T05:38:59.264Z,100656.31
2018-09-22T05:40:05.009Z,100655.44
2018-09-22T05:41:11.035Z,100654.88
2018-09-22T05:42:17.484Z,100655.71
2018-09-22T05:43:23.801Z,100658.89
2018-09-22T05:44:30.107Z,100656.34
2018-09-22T05:45:36.467Z,100658.20
2018-09-22T05:46:42.763Z,100658.58
2018-09-22T05:47:48.678Z,100660.17
2018-09-22T05:48:54.971Z,100662.28
2018-09-22T05:50:01.408Z,100662.23
2018-09-22T05:51:07.658Z,100661.38
2018-09-22T05:52:13.888Z,100661.58
2018-09-22T05:53:20.154Z,100668.19
2018-09-22T05:54:26.396Z,100667.75
2018-09-22T05:55:33.028Z,100668.93
2018-09-22T05:56:39.377Z,100665.92
2018-09-22T05:57:45.617Z,100668.55
2018-09-22T05:58:51.866Z,100671.27
2018-09-22T05:59:58.104Z,100670.82
2018-09-22T06:01:04.370Z,100676.14
2018-09-22T06:02:10.639Z,100682.55
2018-09-22T06:03:16.900Z,100682.23
2018-09-22T06:04:23.387Z,100681.13
2018-09-22T06:05:30.308Z,100687.39
2018-09-22T06:06:36.684Z,100693.19
2018-09-22T06:07:43.123Z,100700.30
2018-09-22T06:08:49.641Z,100695.64
2018-09-22T06:09:56.362Z,100698.30
2018-09-22T06:11:03.193Z,100697.62
2018-09-22T06:12:09.902Z,100702.48
2018-09-22T06:13:15.934Z,100705.08
2018-09-22T06:14:22.400Z,100702.91
2018-09-22T06:15:28.872Z,100707.34
2018-09-22T06:16:36.130Z,100707.91
2018-09-22T06:17:43.882Z,100707.23
2018-09-22T06:18:50.257Z,100711.77
2018-09-22T06:19:59.359Z,100714.29
2018-09-22T06:21:05.747Z,100714.87
2018-09-22T06:22:15.420Z,100714.57
2018-09-22T06:23:22.228Z,100719.78
2018-09-22T06:24:28.887Z,100725.20
2018-09-22T06:25:35.293Z,100721.83
2018-09-22T06:26:42.198Z,100723.11
2018-09-22T06:27:49.430Z,100719.80
2018-09-22T06:29:01.374Z,100724.20
2018-09-22T06:30:09.251Z,100720.92
2018-09-22T06:31:18.157Z,100722.72
2018-09-22T06:32:26.148Z,100723.66
2018-09-22T06:33:33.727Z,100719.56
2018-09-22T06:34:40.575Z,100726.94
2018-09-22T06:35:49.295Z,100724.86
2018-09-22T06:36:56.363Z,100732.89
2018-09-22T06:38:04.135Z,100723.25
2018-09-22T06:39:10.374Z,100736.48
2018-09-22T06:40:16.952Z,100740.42
2018-09-22T06:41:26.334Z,100739.11
2018-09-22T06:42:35.092Z,100734.36
2018-09-22T06:43:43.354Z,100739.17
2018-09-22T06:44:50.082Z,100733.45
2018-09-22T06:45:57.127Z,100739.97
2018-09-22T06:47:03.367Z,100735.37
2018-09-22T06:48:09.611Z,100736.02
2018-09-22T06:49:15.845Z,100730.72
2018-09-22T06:50:22.108Z,100730.27
2018-09-22T06:51:28.362Z,100737.38
2018-09-22T06:52:34.623Z,100735.94
2018-09-22T06:53:40.832Z,100742.80
2018-09-22T06:54:47.071Z,100746.78
2018-09-22T06:55:53.298Z,100751.56
2018-09-22T06:56:59.577Z,100749.27
2018-09-22T06:58:05.844Z,100752.40
2018-09-22T06:59:12.072Z,100746.73
2018-09-22T07:00:18.330Z,100746.66
2018-09-22T07:01:24.785Z,100734.90
2018-09-22T07:02:31.092Z,100735.72
2018-09-22T07:03:37.333Z,100732.17
2018-09-22T07:04:43.587Z,100735.33
2018-09-22T07:05:49.853Z,100732.11
2018-09-22T07:06:56.123Z,100727.97
2018-09-22T07:08:02.361Z,100730.39
2018-09-22T07:09:08.394Z,100736.20
2018-09-22T07:10:14.672Z,100744.17
2018-09-22T07:11:20.942Z,100752.03
2018-09-22T07:12:27.198Z,100746.01
2018-09-22T07:13:33.523Z,100745.76
2018-09-22T07:14:39.785Z,100748.57
2018-09-22T07:15:46.100Z,100752.98
2018-09-22T07:16:52.389Z,100753.17
2018-09-22T07:17:58.624Z,100754.55
2018-09-22T07:19:04.860Z,100750.75
2018-09-22T07:20:11.104Z,100753.23
2018-09-22T07:21:17.151Z,100753.77
2018-09-22T07:23:58.663Z,100762.77
2018-09-22T07:25:04.915Z,100754.38
2018-09-22T07:26:11.154Z,100756.22
2018-09-22T07:27:17.393Z,100754.47
2018-09-22T07:28:23.688Z,100755.48
2018-09-22T07:29:29.760Z,100749.19
2018-09-22T07:30:36.028Z,100745.36
2018-09-22T07:31:42.309Z,100744.50
2018-09-22T07:32:48.548Z,100743.22
2018-09-22T07:33:54.772Z,100746.38
2018-09-22T07:35:01.072Z,100757.30
2018-09-22T07:36:07.349Z,100751.44
2018-09-22T07:37:13.641Z,100756.48
2018-09-22T07:38:20.835Z,100752.37
2018-09-22T07:39:28.460Z,100756.59
2018-09-22T07:40:36.574Z,100746.33
2018-09-22T07:41:43.794Z,100757.88
2018-09-22T07:42:54.435Z,100762.56
2018-09-22T07:44:01.731Z,100749.37
2018-09-22T07:45:09.053Z,100751.91
2018-09-22T07:46:16.618Z,100766.98
2018-09-22T07:47:23.647Z,100760.25
2018-09-22T07:48:30.987Z,100757.88
2018-09-22T07:49:38.364Z,100759.33
2018-09-22T07:50:45.602Z,100769.46
2018-09-22T07:51:51.596Z,100772.13
2018-09-22T07:52:57.844Z,100761.38
2018-09-22T07:54:04.108Z,100760.16
2018-09-22T07:55:10.355Z,100763.98
2018-09-22T07:56:16.755Z,100769.69
2018-09-22T07:57:23.076Z,100775.72
2018-09-22T07:58:29.341Z,100779.68
2018-09-22T07:59:35.578Z,100776.55
2018-09-22T08:00:41.893Z,100772.45
2018-09-22T08:01:48.201Z,100781.48
2018-09-22T08:02:54.598Z,100785.91
2018-09-22T08:04:00.838Z,100785.42
2018-09-22T08:05:06.420Z,100785.83
2018-09-22T08:06:12.785Z,100793.63
2018-09-22T08:07:19.090Z,100787.09
2018-09-22T08:08:25.329Z,100794.46
2018-09-22T08:09:31.583Z,100791.78
2018-09-22T08:10:37.832Z,100800.64
2018-09-22T08:11:44.165Z,100796.14
2018-09-22T08:12:50.612Z,100796.13
2018-09-22T08:13:56.856Z,100796.84
2018-09-22T08:15:03.102Z,100799.41
2018-09-22T08:16:09.003Z,100795.34
2018-09-22T08:17:15.252Z,100800.41
2018-09-22T08:18:21.501Z,100796.83
2018-09-22T08:19:27.862Z,100798.92
2018-09-22T08:20:34.092Z,100790.47
2018-09-22T08:21:40.377Z,100792.93
2018-09-22T08:22:46.655Z,100793.79
2018-09-22T08:23:52.937Z,100800.48
2018-09-22T08:24:59.172Z,100802.50
2018-09-22T08:26:05.123Z,100805.52
2018-09-22T08:27:11.429Z,100809.31
2018-09-22T08:28:17.667Z,100807.05
2018-09-22T08:29:23.979Z,100799.36
2018-09-22T08:30:29.875Z,100799.48
2018-09-22T08:31:35.906Z,100806.27
2018-09-22T08:32:42.243Z,100806.57
2018-09-22T08:33:48.484Z,100812.72
2018-09-22T08:34:54.489Z,100804.93
2018-09-22T08:36:00.767Z,100816.41
2018-09-22T08:37:07.482Z,100818.34
2018-09-22T08:38:13.453Z,100817.30
2018-09-22T08:39:19.732Z,100819.87
2018-09-22T08:40:25.952Z,100823.37
2018-09-22T08:41:32.188Z,100822.30
2018-09-22T08:42:38.513Z,100819.80
2018-09-22T08:43:44.782Z,100817.63
2018-09-22T08:44:51.066Z,100818.16
2018-09-22T08:45:57.521Z,100819.63
2018-09-22T08:47:03.799Z,100821.13
2018-09-22T08:48:10.047Z,100825.31
2018-09-22T08:49:16.299Z,100824.16
2018-09-22T08:50:22.535Z,100823.09
2018-09-22T08:51:28.767Z,100828.42
2018-09-22T08:52:34.667Z,100828.95
2018-09-22T08:53:40.900Z,100830.81
2018-09-22T08:54:47.159Z,100834.13
2018-09-22T08:55:53.436Z,100824.27
2018-09-22T08:56:59.666Z,100823.52
2018-09-22T08:58:05.941Z,100824.16
2018-09-22T08:59:12.186Z,100826.48
2018-09-22T09:00:18.483Z,100822.59
2018-09-22T09:01:24.863Z,100823.34
2018-09-22T09:02:30.836Z,100823.05
2018-09-22T09:03:36.820Z,100815.47
2018-09-22T09:04:43.124Z,100810.58
2018-09-22T09:05:49.597Z,100824.13
2018-09-22T09:06:56.058Z,100819.76
2018-09-22T09:08:02.341Z,100816.92
2018-09-22T09:09:08.265Z,100813.17
2018-09-22T09:10:14.623Z,100812.57
2018-09-22T09:11:20.922Z,100808.36
2018-09-22T09:12:27.174Z,100805.75
2018-09-22T09:13:33.459Z,100812.17
2018-09-22T09:14:39.724Z,100813.05
2018-09-22T09:15:45.877Z,100818.37
2018-09-22T09:16:52.135Z,100818.32
2018-09-22T09:17:58.399Z,100814.31
2018-09-22T09:19:04.304Z,100819.20
2018-09-22T09:20:10.557Z,100821.64
2018-09-22T09:21:16.805Z,100818.08
2018-09-22T09:22:23.056Z,100826.66
2018-09-22T09:23:29.309Z,100826.23
2018-09-22T09:24:35.593Z,100826.81
2018-09-22T09:25:41.858Z,100826.70
2018-09-22T09:26:48.123Z,100822.95
2018-09-22T09:27:54.409Z,100830.95
2018-09-22T09:29:00.951Z,100827.19
2018-09-22T09:30:06.962Z,100820.81
2018-09-22T09:31:13.201Z,100816.73
2018-09-22T09:32:19.439Z,100814.42
2018-09-22T09:33:25.695Z,100822.91
2018-09-22T09:34:31.933Z,100820.91
2018-09-22T09:35:38.213Z,100821.52
2018-09-22T09:36:44.478Z,100814.84
2018-09-22T09:37:51.141Z,100814.77
2018-09-22T09:38:57.399Z,100808.16
2018-09-22T09:40:03.723Z,100811.09
2018-09-22T09:41:10.015Z,100815.92
2018-09-22T09:42:16.283Z,100817.71
2018-09-22T09:43:22.628Z,100819.78
2018-09-22T09:44:29.053Z,100814.36
2018-09-22T09:45:35.284Z,100815.53
2018-09-22T09:46:41.544Z,100818.46
2018-09-22T09:47:47.593Z,100814.50
2018-09-22T09:48:53.820Z,100814.33
2018-09-22T09:50:00.069Z,100805.72
2018-09-22T09:51:06.304Z,100805.88
2018-09-22T09:52:12.535Z,100813.31
2018-09-22T09:53:18.457Z,100812.70
2018-09-22T09:54:24.827Z,100810.91
2018-09-22T09:55:31.260Z,100814.20
2018-09-22T09:56:37.195Z,100811.42
2018-09-22T09:57:43.487Z,100815.70
2018-09-22T09:58:49.700Z,100805.65
2018-09-22T09:59:55.927Z,100803.74
2018-09-22T10:01:02.163Z,100801.56
2018-09-22T10:02:08.028Z,100801.22
2018-09-22T10:03:13.928Z,100805.34
2018-09-22T10:04:20.219Z,100804.97
2018-09-22T10:05:26.516Z,100803.47
2018-09-22T10:06:32.815Z,100806.08
2018-09-22T10:07:39.091Z,100801.23
2018-09-22T10:08:45.386Z,100799.87
2018-09-22T10:09:51.632Z,100805.02
2018-09-22T10:10:57.857Z,100807.78
2018-09-22T10:12:03.804Z,100812.42
2018-09-22T10:13:10.208Z,100810.02
2018-09-22T10:14:16.111Z,100800.80
2018-09-22T10:15:22.721Z,100809.19
2018-09-22T10:16:28.992Z,100803.39
2018-09-22T10:17:35.268Z,100798.09
2018-09-22T10:18:41.522Z,100798.76
2018-09-22T10:19:47.794Z,100790.81
2018-09-22T10:20:54.034Z,100796.27
2018-09-22T10:22:00.260Z,100799.77
2018-09-22T10:23:06.535Z,100800.86
2018-09-22T10:24:12.778Z,100793.03
2018-09-22T10:25:19.095Z,100798.68
2018-09-22T10:26:25.414Z,100794.81
2018-09-22T10:27:31.691Z,100791.82
2018-09-22T10:28:37.954Z,100796.99
2018-09-22T10:29:44.216Z,100797.59
2018-09-22T10:30:50.445Z,100802.73
2018-09-22T10:31:56.698Z,100797.47
2018-09-22T10:33:02.600Z,100790.88
2018-09-22T10:34:08.886Z,100789.48
2018-09-22T10:35:15.132Z,100790.92
2018-09-22T10:36:21.412Z,100784.36
2018-09-22T10:37:27.710Z,100775.63
2018-09-22T10:38:33.976Z,100779.66
2018-09-22T10:39:40.272Z,100784.45
2018-09-22T10:40:46.673Z,100773.34
2018-09-22T10:41:52.902Z,100784.53
2018-09-22T10:42:59.225Z,100781.12
2018-09-22T10:44:05.498Z,100788.08
2018-09-22T10:45:11.766Z,100789.87
2018-09-22T10:46:18.009Z,100788.67
2018-09-22T10:47:24.275Z,100785.06
2018-09-22T10:48:30.549Z,100786.29
2018-09-22T10:49:36.809Z,100781.53
2018-09-22T10:50:43.112Z,100785.50
2018-09-22T10:51:49.114Z,100783.83
2018-09-22T10:52:55.402Z,100785.36
2018-09-22T10:54:01.890Z,100784.53
2018-09-22T10:55:08.161Z,100781.69
2018-09-22T10:56:14.521Z,100788.94
2018-09-22T10:57:20.903Z,100779.98
2018-09-22T10:58:27.200Z,100776.67
2018-09-22T10:59:33.445Z,100766.70
2018-09-22T11:00:39.312Z,100769.92
2018-09-22T11:01:45.626Z,100767.55
2018-09-22T11:02:51.851Z,100767.27
2018-09-22T11:03:58.106Z,100761.21
2018-09-22T11:05:03.786Z,100758.81
2018-09-22T11:06:10.091Z,100762.21
2018-09-22T11:07:16.377Z,100769.41
2018-09-22T11:08:22.713Z,100779.05
2018-09-22T11:09:28.992Z,100774.95
2018-09-22T11:10:35.241Z,100774.75
2018-09-22T11:11:41.477Z,100773.04
2018-09-22T11:12:47.801Z,100775.34
2018-09-22T11:13:54.228Z,100771.13
2018-09-22T11:15:00.608Z,100772.42
2018-09-22T11:16:06.591Z,100766.69
2018-09-22T11:17:13.041Z,100768.63
2018-09-22T11:18:19.304Z,100772.41
2018-09-22T11:19:25.690Z,100776.45
2018-09-22T11:20:31.952Z,100772.61
2018-09-22T11:21:38.232Z,100783.28
2018-09-22T11:22:44.465Z,100786.88
2018-09-22T11:23:50.744Z,100780.23
2018-09-22T11:24:56.976Z,100776.80
2018-09-22T11:26:03.210Z,100778.88
2018-09-22T11:27:09.492Z,100776.78
2018-09-22T11:28:15.821Z,100771.20
2018-09-22T11:29:22.094Z,100782.31
2018-09-22T11:30:28.358Z,100774.67
2018-09-22T11:31:34.236Z,100773.77
2018-09-22T11:32:40.535Z,100769.60
2018-09-22T11:33:46.997Z,100774.44
2018-09-22T11:34:53.293Z,100769.18
2018-09-22T11:35:59.540Z,100774.37
2018-09-22T11:37:05.794Z,100769.77
2018-09-22T11:38:12.887Z,100769.77
2018-09-22T11:39:19.208Z,100769.14
2018-09-22T11:40:25.468Z,100769.61
2018-09-22T11:41:31.689Z,100768.94
2018-09-22T11:42:38.012Z,100763.00
2018-09-22T11:43:44.249Z,100772.73
2018-09-22T11:44:50.513Z,100774.91
2018-09-22T11:45:56.777Z,100778.92
2018-09-22T11:47:03.012Z,100780.14
2018-09-22T11:48:09.247Z,100773.17
2018-09-22T11:49:15.491Z,100775.75
2018-09-22T11:50:21.358Z,100773.77
2018-09-22T11:51:27.690Z,100767.58
2018-09-22T11:52:33.975Z,100761.50
2018-09-22T11:53:40.267Z,100770.06
2018-09-22T11:54:46.546Z,100769.59
2018-09-22T11:55:52.789Z,100771.28
2018-09-22T11:56:59.011Z,100762.70
2018-09-22T11:58:05.256Z,100764.34
2018-09-22T11:59:11.540Z,100775.52
2018-09-22T12:00:17.622Z,100772.86
2018-09-22T12:01:23.886Z,100772.93
2018-09-22T12:02:30.129Z,100771.66
2018-09-22T12:03:36.404Z,100771.27
2018-09-22T12:04:42.717Z,100768.13
2018-09-22T12:05:49.019Z,100773.52
2018-09-22T12:06:55.471Z,100768.98
2018-09-22T12:08:01.742Z,100765.86
2018-09-22T12:09:07.697Z,100765.25
2018-09-22T12:10:13.957Z,100759.47
2018-09-22T12:11:20.263Z,100753.01
2018-09-22T12:12:28.061Z,100752.77
2018-09-22T12:13:35.210Z,100746.32
2018-09-22T12:14:42.843Z,100736.72
2018-09-22T12:15:50.327Z,100739.04
2018-09-22T12:16:57.526Z,100730.63
2018-09-22T12:18:12.727Z,100738.76
2018-09-22T12:19:27.180Z,100736.84
2018-09-22T12:20:34.222Z,100744.90
2018-09-22T12:21:41.486Z,100739.13
2018-09-22T12:22:48.805Z,100736.61
2018-09-22T12:23:56.096Z,100730.02
2018-09-22T12:25:03.330Z,100726.36
2018-09-22T12:26:10.461Z,100732.71
2018-09-22T12:27:18.614Z,100730.02
2018-09-22T12:28:27.410Z,100726.83
2018-09-22T12:29:36.007Z,100725.77
2018-09-22T12:30:44.309Z,100728.55
2018-09-22T12:32:02.636Z,100725.22
2018-09-22T12:33:10.122Z,100727.43
2018-09-22T12:34:19.931Z,100724.48
2018-09-22T12:35:30.736Z,100724.54
2018-09-22T12:36:40.229Z,100732.11
2018-09-22T12:37:47.472Z,100736.90
2018-09-22T12:38:56.569Z,100732.88
2018-09-22T12:40:04.562Z,100735.28